Time;durP1;ratioP1;P1;durP2;ratioP2;P2;SDS_P1;SDS_P2;PMS_P1;PMS_P2;Temp;Humidity;BMP_temperature;BMP_pressure;BME280_temperature;BME280_humidity;BME280_pressure;Samples;Min_cycle;Max_cycle;Signal;HPM_P1;HPM_P2
2023/08/21 00:01:29;;;;;;;6.60;6.00;;;22.10;99.90;;;;;;5156846;27;20198;-84
2023/08/21 00:03:54;;;;;;;6.82;5.82;;;22.10;99.90;;;;;;5157551;27;20177;-85
2023/08/21 00:06:20;;;;;;;6.80;6.10;;;22.10;99.90;;;;;;5157462;27;20176;-85
2023/08/21 00:08:46;;;;;;;7.95;5.45;;;22.00;99.90;;;;;;5139168;27;20170;-85
2023/08/21 00:11:11;;;;;;;6.55;4.53;;;22.00;99.90;;;;;;5156757;27;20183;-84
2023/08/21 00:13:37;;;;;;;8.13;5.43;;;21.90;99.90;;;;;;5157401;27;20182;-85
2023/08/21 00:16:03;;;;;;;5.75;5.13;;;21.70;99.90;;;;;;5157489;27;20243;-85
2023/08/21 00:18:28;;;;;;;6.55;5.20;;;21.60;99.90;;;;;;5138683;27;20205;-85
2023/08/21 00:20:54;;;;;;;7.47;6.28;;;21.40;99.90;;;;;;5156421;27;20174;-85
2023/08/21 00:23:19;;;;;;;6.72;6.05;;;21.40;99.90;;;;;;5052163;27;20176;-85
2023/08/21 00:25:47;;;;;;;8.00;5.65;;;21.50;99.90;;;;;;5156859;27;20166;-85
2023/08/21 00:28:13;;;;;;;9.02;5.88;;;21.50;99.90;;;;;;5138662;27;20201;-85
2023/08/21 00:30:39;;;;;;;6.82;5.80;;;21.50;99.90;;;;;;5137867;27;20210;-85
2023/08/21 00:33:04;;;;;;;6.80;6.10;;;21.40;99.90;;;;;;5157195;27;20173;-85
2023/08/21 00:35:30;;;;;;;8.73;5.80;;;21.30;99.90;;;;;;5138315;27;20672;-85
2023/08/21 00:37:55;;;;;;;10.55;5.72;;;21.30;99.90;;;;;;5144489;27;20206;-84
2023/08/21 00:40:21;;;;;;;7.93;6.57;;;21.40;99.90;;;;;;5156381;27;20170;-85
2023/08/21 00:42:46;;;;;;;7.40;6.05;;;21.40;99.90;;;;;;5138086;27;20193;-85
2023/08/21 00:45:12;;;;;;;8.52;6.15;;;21.40;99.90;;;;;;5138562;27;20540;-85
2023/08/21 00:47:38;;;;;;;8.30;6.82;;;21.40;99.90;;;;;;5138182;27;20158;-85
2023/08/21 00:50:06;;;;;;;7.43;6.50;;;21.30;99.90;;;;;;5137637;27;20166;-85
2023/08/21 00:52:33;;;;;;;7.53;6.53;;;21.30;99.90;;;;;;5137946;27;20243;-85
2023/08/21 00:54:59;;;;;;;9.20;6.50;;;21.30;99.90;;;;;;5156562;27;20169;-85
2023/08/21 00:57:25;;;;;;;7.65;6.78;;;21.30;99.90;;;;;;5156637;27;20170;-85
2023/08/21 00:59:51;;;;;;;7.60;6.32;;;21.30;99.90;;;;;;5156008;27;20227;-84
2023/08/21 01:02:18;;;;;;;8.52;6.50;;;21.30;99.90;;;;;;5099206;27;20213;-85
2023/08/21 01:04:44;;;;;;;8.90;6.93;;;21.40;99.90;;;;;;5094475;27;20167;-85
2023/08/21 01:07:10;;;;;;;7.78;6.97;;;21.40;99.90;;;;;;5137933;27;20173;-85
2023/08/21 01:10:03;;;;;;;8.80;6.60;;;21.30;99.90;;;;;;5156022;27;20551;-83
2023/08/21 01:12:29;;;;;;;8.02;6.70;;;21.30;99.90;;;;;;5156224;27;20194;-85
2023/08/21 01:15:01;;;;;;;7.30;6.60;;;21.20;99.90;;;;;;5137628;27;20199;-85
2023/08/21 01:17:29;;;;;;;7.30;6.55;;;21.30;99.90;;;;;;5137784;27;20178;-85
2023/08/21 01:19:56;;;;;;;7.40;6.68;;;21.30;99.90;;;;;;5155718;27;20173;-85
2023/08/21 01:22:27;;;;;;;7.20;6.43;;;21.30;99.90;;;;;;5137490;27;20197;-85
2023/08/21 01:24:53;;;;;;;7.40;6.50;;;21.40;99.90;;;;;;5156359;27;20170;-85
2023/08/21 01:27:21;;;;;;;9.73;6.55;;;21.30;99.90;;;;;;5156012;27;20166;-85
2023/08/21 01:29:47;;;;;;;6.70;6.10;;;21.30;99.90;;;;;;5155455;27;20505;-85
2023/08/21 01:32:38;;;;;;;8.05;6.40;;;21.40;99.90;;;;;;5156129;27;20668;-85
2023/08/21 01:35:05;;;;;;;8.80;6.47;;;21.50;99.90;;;;;;5137238;27;20201;-84
2023/08/21 01:37:31;;;;;;;8.43;6.53;;;21.40;99.90;;;;;;5155839;27;20200;-85
2023/08/21 01:40:00;;;;;;;8.55;6.57;;;21.30;99.90;;;;;;5155259;27;20170;-85
2023/08/21 01:42:25;;;;;;;7.32;6.60;;;21.40;99.90;;;;;;5137332;27;20242;-85
2023/08/21 01:44:51;;;;;;;7.30;6.60;;;21.40;99.90;;;;;;5137320;27;20261;-85
2023/08/21 01:47:16;;;;;;;6.93;6.25;;;21.50;99.90;;;;;;5155634;27;20178;-84
2023/08/21 01:49:42;;;;;;;7.20;6.10;;;21.60;99.90;;;;;;5136538;27;20170;-85
2023/08/21 01:52:07;;;;;;;7.28;5.78;;;21.50;99.90;;;;;;5155504;27;20186;-85
2023/08/21 01:54:33;;;;;;;6.60;5.95;;;21.30;99.90;;;;;;5155338;27;20210;-85
2023/08/21 01:56:58;;;;;;;6.45;5.85;;;21.30;99.90;;;;;;5136718;27;20194;-85
2023/08/21 01:59:24;;;;;;;7.75;6.18;;;21.30;99.90;;;;;;5136909;27;20163;-85
2023/08/21 02:01:50;;;;;;;7.32;6.55;;;21.30;99.90;;;;;;5154635;27;20233;-85
2023/08/21 02:04:16;;;;;;;9.35;7.15;;;21.30;99.90;;;;;;5136674;27;20177;-85
2023/08/21 02:06:43;;;;;;;7.97;6.97;;;21.30;99.90;;;;;;5155282;27;20170;-84
2023/08/21 02:09:09;;;;;;;7.28;6.60;;;21.20;99.90;;;;;;5155247;27;20162;-85
2023/08/21 02:11:35;;;;;;;7.63;6.80;;;21.10;99.90;;;;;;5136136;27;20248;-85
2023/08/21 02:14:00;;;;;;;9.10;6.50;;;21.10;99.90;;;;;;5136695;27;20173;-85
2023/08/21 02:16:26;;;;;;;5.93;5.32;;;21.00;99.90;;;;;;5155432;27;20237;-85
2023/08/21 02:18:51;;;;;;;8.60;6.38;;;20.80;99.90;;;;;;5136447;27;20174;-85
2023/08/21 02:21:17;;;;;;;7.63;6.55;;;20.70;99.90;;;;;;5136095;27;20187;-85
2023/08/21 02:23:42;;;;;;;7.28;6.20;;;20.60;99.90;;;;;;5105583;27;20278;-85
2023/08/21 02:26:08;;;;;;;6.50;5.90;;;20.50;99.90;;;;;;5090242;27;20178;-85
2023/08/21 02:28:33;;;;;;;7.45;5.63;;;20.60;99.90;;;;;;5154978;27;20166;-85
2023/08/21 02:30:59;;;;;;;6.03;5.30;;;20.50;99.90;;;;;;5135775;27;20222;-85
2023/08/21 02:33:24;;;;;;;7.40;6.38;;;20.40;99.90;;;;;;5136138;27;20178;-85
2023/08/21 02:35:51;;;;;;;6.15;5.65;;;20.40;99.90;;;;;;5095932;27;20193;-85
2023/08/21 02:38:16;;;;;;;6.95;6.28;;;20.50;99.90;;;;;;5142042;27;20163;-85
2023/08/21 02:40:42;;;;;;;6.85;6.15;;;20.40;99.90;;;;;;5127520;27;20166;-85
2023/08/21 02:43:07;;;;;;;7.03;6.30;;;20.40;99.90;;;;;;5135346;27;20182;-85
2023/08/21 02:45:33;;;;;;;10.05;6.82;;;20.30;99.90;;;;;;5032544;28;20170;-85
2023/08/21 02:47:59;;;;;;;7.13;6.43;;;20.30;99.90;;;;;;5050117;28;20219;-85
2023/08/21 02:50:24;;;;;;;10.00;6.95;;;20.30;99.90;;;;;;5031485;28;20203;-85
2023/08/21 02:52:50;;;;;;;7.50;6.80;;;20.40;99.90;;;;;;5032110;28;20282;-85
2023/08/21 02:55:15;;;;;;;8.63;6.72;;;20.30;99.90;;;;;;5079360;27;20186;-85
2023/08/21 02:57:41;;;;;;;8.30;6.75;;;20.40;99.90;;;;;;5154702;27;20218;-85
2023/08/21 03:00:08;;;;;;;7.72;5.90;;;20.30;99.90;;;;;;5134640;27;20213;-85
2023/08/21 03:02:34;;;;;;;6.88;5.97;;;20.30;99.90;;;;;;5154491;27;20242;-85
2023/08/21 03:05:00;;;;;;;7.30;6.60;;;20.40;99.90;;;;;;5154170;27;20162;-83
2023/08/21 03:07:25;;;;;;;8.00;6.65;;;20.40;99.90;;;;;;5154032;27;20162;-85
2023/08/21 03:09:51;;;;;;;7.60;6.57;;;20.30;99.90;;;;;;5135048;27;20166;-85
2023/08/21 03:12:16;;;;;;;6.97;6.38;;;20.30;99.90;;;;;;5154358;27;20323;-85
2023/08/21 03:14:42;;;;;;;8.20;6.63;;;20.40;99.90;;;;;;5154240;27;20170;-85
2023/08/21 03:17:08;;;;;;;8.35;7.55;;;20.40;99.90;;;;;;5135478;27;20212;-85
2023/08/21 03:19:33;;;;;;;8.27;7.47;;;20.30;99.90;;;;;;5154300;27;20540;-85
2023/08/21 03:21:59;;;;;;;8.25;7.45;;;20.30;99.90;;;;;;5153423;27;20221;-85
2023/08/21 03:24:24;;;;;;;8.20;7.28;;;20.40;99.90;;;;;;5153955;27;20166;-85
2023/08/21 03:26:50;;;;;;;8.38;7.43;;;20.30;99.90;;;;;;5135485;27;20201;-85
2023/08/21 03:29:15;;;;;;;7.68;6.93;;;20.30;99.90;;;;;;5135381;27;20559;-85
2023/08/21 03:31:41;;;;;;;7.75;6.88;;;20.40;99.90;;;;;;5134669;27;20240;-85
2023/08/21 03:34:07;;;;;;;6.78;6.10;;;20.50;99.90;;;;;;5135339;27;20162;-86
2023/08/21 03:36:33;;;;;;;8.15;6.80;;;20.50;99.90;;;;;;5135162;27;20202;-85
2023/08/21 03:38:59;;;;;;;7.55;6.30;;;20.50;99.90;;;;;;5135233;27;20166;-85
2023/08/21 03:41:25;;;;;;;7.10;6.28;;;20.60;99.90;;;;;;5153307;27;20186;-85
2023/08/21 03:43:51;;;;;;;7.25;6.55;;;20.50;99.90;;;;;;5135406;27;20169;-85
2023/08/21 03:46:16;;;;;;;7.25;6.43;;;20.50;99.90;;;;;;5153922;27;20166;-85
2023/08/21 03:48:42;;;;;;;7.20;6.05;;;20.40;99.90;;;;;;5153894;27;20198;-85
2023/08/21 03:51:07;;;;;;;7.47;6.75;;;20.30;99.90;;;;;;5134440;27;20190;-85
2023/08/21 03:53:33;;;;;;;7.65;5.93;;;20.30;99.90;;;;;;5120103;27;20189;-85
2023/08/21 03:55:58;;;;;;;8.90;6.80;;;20.20;99.90;;;;;;5091672;27;20270;-85
2023/08/21 03:58:26;;;;;;;6.85;6.18;;;20.10;99.90;;;;;;5153626;27;20660;-85
2023/08/21 04:00:52;;;;;;;9.38;6.38;;;20.00;99.90;;;;;;5134518;27;20169;-85
2023/08/21 04:03:17;;;;;;;7.80;6.43;;;19.90;99.90;;;;;;5135087;27;20169;-85
2023/08/21 04:05:43;;;;;;;8.30;6.25;;;19.90;99.90;;;;;;5153433;27;20167;-85
2023/08/21 04:08:09;;;;;;;8.57;6.78;;;19.80;99.90;;;;;;5135243;27;20186;-85
2023/08/21 04:10:34;;;;;;;7.50;6.00;;;20.00;99.90;;;;;;5134406;27;20170;-85
2023/08/21 04:13:00;;;;;;;5.32;4.93;;;20.00;99.90;;;;;;5157371;27;20166;-85
2023/08/21 04:15:26;;;;;;;4.85;4.00;;;19.90;99.90;;;;;;5138507;27;20194;-85
2023/08/21 04:17:52;;;;;;;7.28;6.15;;;19.90;99.90;;;;;;5157470;27;20214;-85
2023/08/21 04:20:20;;;;;;;7.47;5.80;;;20.00;99.90;;;;;;5138079;27;20179;-85
2023/08/21 04:22:45;;;;;;;6.40;5.53;;;20.10;99.90;;;;;;5156973;27;20217;-85
2023/08/21 04:25:11;;;;;;;8.02;7.05;;;20.00;99.90;;;;;;5138764;27;20621;-85
2023/08/21 04:27:37;;;;;;;7.22;6.53;;;20.10;99.90;;;;;;5138719;27;20190;-85
2023/08/21 04:30:03;;;;;;;8.15;6.43;;;20.00;99.90;;;;;;5138039;27;20170;-86
2023/08/21 04:32:29;;;;;;;7.78;6.63;;;20.00;99.90;;;;;;5157055;27;20190;-85
2023/08/21 04:34:54;;;;;;;8.63;6.90;;;20.10;99.90;;;;;;5157012;27;20169;-85
2023/08/21 04:37:20;;;;;;;8.27;7.40;;;20.00;99.90;;;;;;5156681;27;20208;-85
2023/08/21 04:39:49;;;;;;;8.70;6.47;;;19.90;99.90;;;;;;5156583;27;20174;-85
2023/08/21 04:42:15;;;;;;;9.25;6.85;;;19.90;99.90;;;;;;5138340;27;20200;-85
2023/08/21 04:44:40;;;;;;;6.80;6.13;;;19.90;99.90;;;;;;5138224;27;20171;-86
2023/08/21 04:47:26;;;;;;;7.63;5.20;;;19.90;99.90;;;;;;5138067;27;20199;-85
2023/08/21 04:49:52;;;;;;;6.32;5.00;;;19.90;99.90;;;;;;5137413;27;20280;-84
2023/08/21 04:52:19;;;;;;;5.32;4.82;;;19.90;99.90;;;;;;5138090;27;20610;-85
2023/08/21 04:54:45;;;;;;;6.65;5.95;;;19.80;99.90;;;;;;5138349;27;20174;-85
2023/08/21 04:57:10;;;;;;;5.97;5.38;;;19.80;99.90;;;;;;5156633;27;20239;-79
2023/08/21 04:59:36;;;;;;;6.38;5.45;;;20.10;99.90;;;;;;5155877;27;20186;-77
2023/08/21 05:02:02;;;;;;;6.07;5.47;;;21.40;99.90;;;;;;5138806;27;20304;-79
2023/08/21 05:04:28;;;;;;;6.07;5.25;;;22.20;99.90;;;;;;5156207;27;20181;-78
2023/08/21 05:06:53;;;;;;;6.05;5.18;;;22.70;1.00;;;;;;5156773;27;20584;-81
2023/08/21 05:09:19;;;;;;;5.45;4.93;;;23.10;1.00;;;;;;5138868;27;20181;-80
2023/08/21 05:11:44;;;;;;;5.20;4.70;;;23.30;1.00;;;;;;5156011;27;20600;-79
2023/08/21 05:14:10;;;;;;;5.57;5.07;;;23.20;1.00;;;;;;5137916;27;20300;-79
2023/08/21 05:16:35;;;;;;;5.85;5.22;;;23.00;99.90;;;;;;5137454;27;20206;-78
2023/08/21 05:19:01;;;;;;;6.30;5.70;;;22.60;1.00;;;;;;5133893;27;20170;-79
2023/08/21 05:21:27;;;;;;;7.45;5.85;;;22.70;1.00;;;;;;5093443;27;20217;-80
2023/08/21 05:23:53;;;;;;;6.07;5.47;;;23.00;99.90;;;;;;5134911;27;20272;-79
2023/08/21 05:26:19;;;;;;;6.25;5.68;;;23.20;99.90;;;;;;5126588;27;20283;-80
2023/08/21 05:28:45;;;;;;;6.28;5.20;;;23.50;24.10;;;;;;5137368;27;20178;-79
2023/08/21 05:31:11;;;;;;;6.63;5.70;;;23.70;1.00;;;;;;5136499;27;20209;-80
2023/08/21 05:33:36;;;;;;;5.68;5.18;;;23.80;99.90;;;;;;5156052;27;20227;-80
2023/08/21 05:36:02;;;;;;;5.68;5.18;;;23.80;99.90;;;;;;5155581;27;20202;-80
2023/08/21 05:38:27;;;;;;;5.68;5.05;;;23.70;1.00;;;;;;5130181;27;20221;-80
2023/08/21 05:40:53;;;;;;;5.80;5.20;;;23.80;1.00;;;;;;5154834;27;20219;-79
2023/08/21 05:43:19;;;;;;;5.50;5.00;;;23.80;1.00;;;;;;5136948;27;20166;-79
2023/08/21 05:45:44;;;;;;;6.32;5.10;;;23.90;1.00;;;;;;5137106;27;20174;-79
2023/08/21 05:48:10;;;;;;;6.20;5.15;;;23.90;68.10;;;;;;5136901;27;20528;-80
2023/08/21 05:50:36;;;;;;;6.47;5.88;;;24.00;1.00;;;;;;5155875;27;20206;-82
2023/08/21 05:53:05;;;;;;;7.75;5.72;;;23.50;99.90;;;;;;5138676;27;20257;-80
2023/08/21 05:55:31;;;;;;;6.50;5.80;;;23.00;99.90;;;;;;5138335;27;20250;-84
2023/08/21 05:57:56;;;;;;;7.15;6.45;;;22.60;1.00;;;;;;5137095;27;20178;-84
2023/08/21 06:00:22;;;;;;;6.82;6.22;;;22.70;41.20;;;;;;5153606;27;20170;-84
2023/08/21 06:02:48;;;;;;;7.78;6.22;;;23.00;2.70;;;;;;5098537;27;20296;-85
2023/08/21 06:05:13;;;;;;;8.93;6.80;;;23.10;1.00;;;;;;5121985;27;20173;-84
2023/08/21 06:07:42;;;;;;;8.27;7.40;;;23.20;1.00;;;;;;5139019;27;20194;-81
2023/08/21 06:10:11;;;;;;;7.30;6.60;;;23.30;1.00;;;;;;5158214;27;20200;-81
2023/08/21 06:12:37;;;;;;;11.25;7.93;;;23.20;20.10;;;;;;5158067;27;20272;-81
2023/08/21 06:15:03;;;;;;;11.32;7.63;;;23.10;49.60;;;;;;5138599;27;20206;-80
2023/08/21 06:17:28;;;;;;;7.10;6.30;;;22.90;99.90;;;;;;5138271;27;20218;-80
2023/08/21 06:19:54;;;;;;;7.22;6.32;;;23.10;17.90;;;;;;5137832;27;20162;-80
2023/08/21 06:22:20;;;;;;;8.15;6.50;;;23.40;1.00;;;;;;5157173;27;20206;-80
2023/08/21 06:24:45;;;;;;;9.07;6.45;;;23.50;1.00;;;;;;5138741;27;20162;-80
2023/08/21 06:27:11;;;;;;;11.57;7.07;;;23.60;99.90;;;;;;5156434;27;20218;-81
2023/08/21 06:29:37;;;;;;;7.00;6.30;;;23.60;99.90;;;;;;5137104;27;20219;-78
2023/08/21 06:32:03;;;;;;;8.38;7.43;;;23.70;99.90;;;;;;5137110;27;20695;-83
2023/08/21 06:34:29;;;;;;;9.75;7.43;;;23.80;99.90;;;;;;5137087;27;20261;-80
2023/08/21 06:36:54;;;;;;;8.85;7.90;;;24.10;1.00;;;;;;5154938;27;20198;-79
2023/08/21 06:39:20;;;;;;;7.78;6.93;;;24.00;19.30;;;;;;5154753;27;20182;-79
2023/08/21 06:41:45;;;;;;;12.55;9.32;;;23.90;99.90;;;;;;5135956;27;20186;-79
2023/08/21 06:44:11;;;;;;;7.47;6.72;;;23.90;1.00;;;;;;5136071;27;20173;-79
2023/08/21 06:46:37;;;;;;;10.45;8.00;;;23.90;99.90;;;;;;5136316;27;20186;-79
2023/08/21 06:49:03;;;;;;;8.40;7.60;;;23.90;99.90;;;;;;5136098;27;20174;-79
2023/08/21 06:51:29;;;;;;;8.10;7.20;;;23.70;1.00;;;;;;5154352;27;20389;-79
2023/08/21 06:53:54;;;;;;;8.23;7.25;;;23.90;99.90;;;;;;5093062;27;20263;-79
2023/08/21 06:56:20;;;;;;;9.40;8.40;;;24.10;1.00;;;;;;5136101;27;20201;-79
2023/08/21 06:58:45;;;;;;;9.32;7.85;;;24.30;99.90;;;;;;5127358;27;20185;-79
2023/08/21 07:01:11;;;;;;;11.73;10.23;;;24.20;1.00;;;;;;5154212;27;20581;-80
2023/08/21 07:03:36;;;;;;;16.40;12.73;;;24.10;1.00;;;;;;5136684;27;20174;-79
2023/08/21 07:06:02;;;;;;;15.32;12.38;;;23.70;1.00;;;;;;5155096;27;20634;-80
2023/08/21 07:08:28;;;;;;;13.68;10.93;;;23.20;99.90;;;;;;5155094;27;20178;-80
2023/08/21 07:10:54;;;;;;;11.15;9.82;;;22.90;99.90;;;;;;5156292;27;20194;-81
2023/08/21 07:13:20;;;;;;;10.95;9.82;;;22.40;99.90;;;;;;5157334;27;20178;-82
2023/08/21 07:15:46;;;;;;;12.45;10.70;;;22.30;99.90;;;;;;5135746;27;20293;-86
2023/08/21 07:18:13;;;;;;;14.50;12.30;;;22.40;99.90;;;;;;5135404;27;20190;-86
2023/08/21 07:20:38;;;;;;;13.32;11.85;;;22.40;99.90;;;;;;5153328;27;20548;-86
2023/08/21 07:23:04;;;;;;;15.57;12.27;;;22.30;99.90;;;;;;5153820;27;20173;-86
2023/08/21 07:25:29;;;;;;;14.48;11.90;;;22.20;99.90;;;;;;5153679;27;20162;-86
2023/08/21 07:27:56;;;;;;;12.90;11.60;;;22.30;99.90;;;;;;5153574;27;20628;-87
2023/08/21 07:30:23;;;;;;;12.95;11.52;;;22.40;99.90;;;;;;5153148;27;20166;-86
2023/08/21 07:32:48;;;;;;;13.38;11.20;;;22.60;99.90;;;;;;5153733;27;20197;-86
2023/08/21 07:35:15;;;;;;;12.95;11.20;;;22.80;99.90;;;;;;5135147;27;20166;-87
2023/08/21 07:37:44;;;;;;;14.45;11.38;;;22.80;99.90;;;;;;5135175;27;20174;-86
2023/08/21 07:40:10;;;;;;;12.27;10.82;;;22.70;99.90;;;;;;5152998;27;20219;-87
2023/08/21 07:42:35;;;;;;;11.85;10.27;;;22.80;99.90;;;;;;5153358;27;20190;-86
2023/08/21 07:45:01;;;;;;;11.15;9.63;;;22.90;99.90;;;;;;5135098;27;20209;-86
2023/08/21 07:47:27;;;;;;;10.95;9.90;;;22.90;99.90;;;;;;5138284;27;20174;-86
2023/08/21 07:49:53;;;;;;;11.18;9.95;;;23.00;99.90;;;;;;5138540;27;20170;-86
2023/08/21 07:52:19;;;;;;;10.75;9.68;;;23.10;99.90;;;;;;5139107;27;20221;-86
2023/08/21 07:54:44;;;;;;;10.30;9.30;;;23.10;99.90;;;;;;5157516;27;20205;-86
2023/08/21 07:57:10;;;;;;;11.40;10.30;;;23.40;99.90;;;;;;5157312;27;20779;-86
2023/08/21 07:59:35;;;;;;;12.93;9.60;;;23.50;99.90;;;;;;5138257;27;20643;-83
2023/08/21 08:02:02;;;;;;;10.48;9.18;;;23.70;99.90;;;;;;5138759;27;20208;-86
2023/08/21 08:04:28;;;;;;;9.93;9.02;;;23.90;99.90;;;;;;5157479;27;20537;-87
2023/08/21 08:06:54;;;;;;;9.32;8.40;;;24.00;99.90;;;;;;5138842;27;20219;-86
2023/08/21 08:09:19;;;;;;;9.50;8.65;;;24.10;99.90;;;;;;5138743;27;20263;-86
2023/08/21 08:11:45;;;;;;;10.02;9.02;;;24.10;99.90;;;;;;5138661;27;20229;-85
2023/08/21 08:14:10;;;;;;;10.07;9.07;;;24.30;99.90;;;;;;5158012;27;20174;-86
2023/08/21 08:16:36;;;;;;;10.20;8.85;;;24.40;99.90;;;;;;5157819;27;20198;-84
2023/08/21 08:19:01;;;;;;;9.73;8.73;;;24.40;10.10;;;;;;5139112;27;20218;-86
2023/08/21 08:21:27;;;;;;;9.73;8.75;;;24.60;2.30;;;;;;5137848;27;20217;-85
2023/08/21 08:23:52;;;;;;;9.85;8.88;;;24.70;1.00;;;;;;5138586;27;20170;-87
2023/08/21 08:26:18;;;;;;;9.57;8.68;;;24.90;1.00;;;;;;5157403;27;20177;-85
2023/08/21 08:28:44;;;;;;;9.38;8.48;;;25.00;1.00;;;;;;5138587;27;20166;-87
2023/08/21 08:31:17;;;;;;;11.27;8.90;;;25.10;1.00;;;;;;5138518;27;20224;-86
2023/08/21 08:33:43;;;;;;;10.25;8.50;;;25.30;1.00;;;;;;5157383;27;20170;-85
2023/08/21 08:36:09;;;;;;;9.85;8.65;;;25.40;99.90;;;;;;5138546;27;20572;-86
2023/08/21 08:38:34;;;;;;;10.15;8.80;;;25.50;99.90;;;;;;5138541;27;20163;-86
2023/08/21 08:41:04;;;;;;;9.98;8.90;;;25.80;1.00;;;;;;5138495;27;20191;-87
2023/08/21 08:43:31;;;;;;;9.38;8.32;;;25.80;99.90;;;;;;5138831;27;20166;-86
2023/08/21 08:45:58;;;;;;;10.45;8.48;;;25.90;99.90;;;;;;5138759;27;20257;-86
2023/08/21 08:48:24;;;;;;;10.32;8.73;;;25.90;1.00;;;;;;5157282;27;20218;-86
2023/08/21 08:50:51;;;;;;;10.88;8.93;;;26.10;1.00;;;;;;5155764;27;20636;-86
2023/08/21 08:53:18;;;;;;;9.07;8.20;;;26.30;99.90;;;;;;5156453;27;20554;-87
2023/08/21 08:55:48;;;;;;;9.43;8.50;;;26.30;99.90;;;;;;5137526;27;20198;-87
2023/08/21 08:58:13;;;;;;;9.13;8.23;;;26.50;1.00;;;;;;5155036;27;20170;-87
2023/08/21 09:00:39;;;;;;;10.45;8.57;;;26.50;99.90;;;;;;5137131;27;20196;-86
2023/08/21 09:03:05;;;;;;;8.43;7.63;;;26.60;1.00;;;;;;5137766;27;20166;-88
2023/08/21 09:05:31;;;;;;;9.15;8.25;;;26.80;99.90;;;;;;5156105;27;20600;-87
2023/08/21 09:08:06;;;;;;;8.43;7.68;;;26.90;6.90;;;;;;5156107;27;20245;-87
2023/08/21 09:10:32;;;;;;;11.68;8.25;;;27.00;1.00;;;;;;5155850;27;20162;-86
2023/08/21 09:13:01;;;;;;;9.13;7.95;;;27.10;99.90;;;;;;5156265;27;20194;-87
2023/08/21 09:15:30;;;;;;;8.75;7.78;;;27.20;1.00;;;;;;5139373;27;20166;-82
2023/08/21 09:17:56;;;;;;;8.07;7.25;;;27.40;1.00;;;;;;5139342;27;20169;-81
2023/08/21 09:20:21;;;;;;;8.55;7.65;;;27.50;99.90;;;;;;5157406;27;20158;-82
2023/08/21 09:22:56;;;;;;;8.13;7.32;;;27.60;94.00;;;;;;5157748;27;20251;-81
2023/08/21 09:25:24;;;;;;;11.20;8.18;;;27.80;1.00;;;;;;5139463;27;20161;-80
2023/08/21 09:27:52;;;;;;;7.28;6.57;;;27.90;1.00;;;;;;5139486;27;20191;-80
2023/08/21 09:30:17;;;;;;;8.07;6.93;;;28.10;1.00;;;;;;5157221;27;20158;-81
2023/08/21 09:32:57;;;;;;;7.82;6.97;;;28.10;20.40;;;;;;5157506;27;20182;-82
2023/08/21 09:35:23;;;;;;;7.78;6.97;;;28.30;1.00;;;;;;5157471;27;20659;-79
2023/08/21 09:37:52;;;;;;;8.15;6.93;;;28.50;99.90;;;;;;5157712;27;20228;-82
2023/08/21 09:40:19;;;;;;;7.53;6.55;;;28.50;99.90;;;;;;5156573;27;20174;-85
2023/08/21 09:42:45;;;;;;;8.02;6.70;;;28.50;1.00;;;;;;5137386;27;20212;-87
2023/08/21 09:45:10;;;;;;;6.63;6.03;;;28.60;1.00;;;;;;5156739;27;20162;-80
2023/08/21 09:47:39;;;;;;;7.43;6.40;;;28.70;52.80;;;;;;5138386;27;20170;-80
2023/08/21 09:50:05;;;;;;;7.50;6.80;;;28.80;99.90;;;;;;5156752;27;20190;-80
2023/08/21 09:52:31;;;;;;;7.18;6.47;;;28.90;1.00;;;;;;5157010;27;20186;-80
2023/08/21 09:54:57;;;;;;;6.45;5.85;;;29.10;1.00;;;;;;5156542;27;20177;-83
2023/08/21 09:57:23;;;;;;;6.18;5.60;;;29.10;1.00;;;;;;5156208;27;20238;-85
2023/08/21 09:59:54;;;;;;;6.97;6.28;;;29.00;1.00;;;;;;5136853;27;20187;-83
2023/08/21 10:02:22;;;;;;;6.20;5.53;;;29.00;1.00;;;;;;5156063;27;20278;-84
2023/08/21 10:04:49;;;;;;;5.93;5.30;;;29.10;1.00;;;;;;5155824;27;20297;-83
2023/08/21 10:07:20;;;;;;;7.43;5.72;;;29.20;1.00;;;;;;5155689;27;20174;-82
2023/08/21 10:09:46;;;;;;;5.88;5.38;;;29.40;99.90;;;;;;5064180;27;20189;-82
2023/08/21 10:12:16;;;;;;;5.93;5.03;;;29.50;99.90;;;;;;5068466;27;20198;-84
2023/08/21 10:14:42;;;;;;;6.18;5.05;;;29.70;99.90;;;;;;5113675;27;20173;-83
2023/08/21 10:17:08;;;;;;;6.00;5.13;;;30.00;99.90;;;;;;5135527;27;20196;-85
2023/08/21 10:19:35;;;;;;;5.13;4.38;;;30.20;99.90;;;;;;5136832;27;20166;-84
2023/08/21 10:22:00;;;;;;;6.28;4.20;;;30.20;99.90;;;;;;5136602;27;20201;-86
2023/08/21 10:24:39;;;;;;;5.20;4.03;;;30.20;99.90;;;;;;5155597;27;20170;-88
2023/08/21 10:27:08;;;;;;;5.50;4.43;;;30.40;99.90;;;;;;5131002;27;20181;-85
2023/08/21 10:29:34;;;;;;;5.53;5.03;;;30.40;99.90;;;;;;5154805;27;20227;-86
2023/08/21 10:32:04;;;;;;;4.85;4.38;;;30.10;1.00;;;;;;5136346;27;20194;-84
2023/08/21 10:34:35;;;;;;;5.50;4.90;;;30.20;1.00;;;;;;5155476;27;20170;-85
2023/08/21 10:37:06;;;;;;;5.10;4.60;;;30.40;1.00;;;;;;5156200;27;20205;-84
2023/08/21 10:39:33;;;;;;;5.05;4.55;;;30.50;1.00;;;;;;5157080;27;20170;-83
2023/08/21 10:42:04;;;;;;;5.15;4.30;;;30.90;1.00;;;;;;5137631;27;20186;-83
2023/08/21 10:44:42;;;;;;;6.93;4.50;;;31.10;99.90;;;;;;5156258;27;20166;-83
2023/08/21 10:47:31;;;;;;;4.70;4.25;;;31.20;99.90;;;;;;5156819;27;20185;-82
2023/08/21 10:50:00;;;;;;;4.75;4.35;;;31.30;59.20;;;;;;5141160;27;20225;-82
2023/08/21 10:52:28;;;;;;;4.50;4.10;;;31.50;99.90;;;;;;5156798;27;20186;-83
2023/08/21 10:55:06;;;;;;;6.63;4.32;;;31.40;71.90;;;;;;5155240;27;20170;-83
2023/08/21 10:57:33;;;;;;;4.57;4.18;;;31.70;99.90;;;;;;5136383;27;20230;-84
2023/08/21 11:00:09;;;;;;;4.65;4.13;;;31.70;99.90;;;;;;5135776;27;20166;-83
2023/08/21 11:02:35;;;;;;;4.80;4.40;;;31.60;1.00;;;;;;5104045;22;20326;-82
2023/08/21 11:05:04;;;;;;;5.53;4.30;;;31.70;99.90;;;;;;5100819;28;20171;-82
2023/08/21 11:07:30;;;;;;;5.07;4.05;;;31.40;1.00;;;;;;5101646;28;20181;-82
2023/08/21 11:09:56;;;;;;;4.70;4.30;;;31.60;1.00;;;;;;5100285;28;20267;-82
2023/08/21 11:12:24;;;;;;;5.97;3.90;;;31.80;1.00;;;;;;5032735;28;20187;-83
2023/08/21 11:14:50;;;;;;;4.40;4.00;;;31.90;1.00;;;;;;5101149;28;20267;-82
2023/08/21 11:17:16;;;;;;;4.40;4.00;;;31.90;1.00;;;;;;5101417;28;20206;-82
2023/08/21 11:19:42;;;;;;;4.90;3.72;;;32.00;1.00;;;;;;5099732;28;20178;-82
2023/08/21 11:22:08;;;;;;;3.88;3.58;;;31.80;1.00;;;;;;5031948;28;20222;-82
2023/08/21 11:24:46;;;;;;;3.75;3.38;;;32.10;1.00;;;;;;5033479;28;20177;-82
2023/08/21 11:27:14;;;;;;;4.03;3.25;;;32.20;1.00;;;;;;5101610;28;20523;-83
2023/08/21 11:29:44;;;;;;;5.35;3.28;;;32.40;99.90;;;;;;5032929;28;20181;-82
2023/08/21 11:32:16;;;;;;;3.83;3.20;;;32.50;99.90;;;;;;5101105;28;20243;-82
2023/08/21 11:34:50;;;;;;;4.05;3.38;;;32.30;99.90;;;;;;5027913;28;20197;-83
2023/08/21 11:37:20;;;;;;;4.18;3.70;;;32.40;99.90;;;;;;5100085;28;20668;-83
2023/08/21 11:39:48;;;;;;;3.40;3.10;;;32.70;1.00;;;;;;5032106;28;20174;-85
2023/08/21 11:42:15;;;;;;;3.83;3.50;;;33.00;1.00;;;;;;5031896;28;20190;-82
2023/08/21 11:44:44;;;;;;;3.55;3.20;;;33.30;1.00;;;;;;5031903;28;20174;-83
2023/08/21 11:47:10;;;;;;;3.92;3.10;;;33.40;1.00;;;;;;5032567;28;20239;-83
2023/08/21 11:49:38;;;;;;;3.97;2.83;;;33.40;99.90;;;;;;5099901;28;20269;-80
2023/08/21 11:52:04;;;;;;;6.28;2.95;;;33.50;99.90;;;;;;5108947;28;20284;-82
2023/08/21 11:54:37;;;;;;;3.95;2.60;;;33.60;99.90;;;;;;5033895;28;20179;-84
2023/08/21 11:57:08;;;;;;;3.30;3.00;;;33.60;99.90;;;;;;5052409;28;20202;-82
2023/08/21 11:59:33;;;;;;;4.50;2.88;;;32.80;99.90;;;;;;5097125;28;20167;-82
2023/08/21 12:01:59;;;;;;;4.35;3.00;;;32.50;1.00;;;;;;5077896;28;20583;-82
2023/08/21 12:04:25;;;;;;;3.47;3.17;;;32.10;99.90;;;;;;5100812;28;20170;-82
2023/08/21 12:06:50;;;;;;;3.92;2.85;;;31.60;1.00;;;;;;5100649;28;20190;-84
2023/08/21 12:09:18;;;;;;;3.53;3.10;;;31.30;1.00;;;;;;5100793;28;20175;-82
2023/08/21 12:11:44;;;;;;;3.38;3.08;;;31.30;1.00;;;;;;5032500;28;20190;-82
2023/08/21 12:14:10;;;;;;;4.55;3.33;;;31.20;1.00;;;;;;5100721;28;20260;-82
2023/08/21 12:16:35;;;;;;;4.97;3.20;;;31.00;1.00;;;;;;5100573;28;20202;-83
2023/08/21 12:19:03;;;;;;;3.47;2.90;;;30.70;1.00;;;;;;5032276;28;20178;-83
2023/08/21 12:21:28;;;;;;;3.83;2.97;;;30.60;1.00;;;;;;5031699;28;20191;-83
2023/08/21 12:23:54;;;;;;;3.30;3.00;;;30.40;1.00;;;;;;5100152;28;20177;-83
2023/08/21 12:26:23;;;;;;;4.68;3.10;;;30.20;25.00;;;;;;5099644;28;20259;-84
2023/08/21 12:28:49;;;;;;;3.53;3.22;;;30.20;99.90;;;;;;5096826;28;20201;-83
2023/08/21 12:31:15;;;;;;;3.58;3.28;;;30.20;99.90;;;;;;5090486;28;20270;-83
2023/08/21 12:33:40;;;;;;;4.43;3.00;;;30.40;99.90;;;;;;5032302;28;20201;-84
2023/08/21 12:36:06;;;;;;;3.60;3.30;;;30.70;1.00;;;;;;5034623;28;20228;-83
2023/08/21 12:38:32;;;;;;;3.42;3.05;;;31.20;1.00;;;;;;5089461;28;20529;-83
2023/08/21 12:40:58;;;;;;;4.90;3.22;;;31.10;1.00;;;;;;5029377;28;20190;-85
2023/08/21 12:43:23;;;;;;;5.20;3.20;;;30.90;1.00;;;;;;5102617;28;20194;-83
2023/08/21 12:45:49;;;;;;;4.28;3.30;;;30.70;13.10;;;;;;5033498;28;20197;-83